sensor_id;sensor_type;location;lat;lon;timestamp;temperature;humidity
35129;DHT22;21301;43.626;10.580;2022-11-20T00:01:53;11.90;99.90
35129;DHT22;21301;43.626;10.580;2022-11-20T00:04:19;11.90;99.90
35129;DHT22;21301;43.626;10.580;2022-11-20T00:06:46;11.80;99.90
35129;DHT22;21301;43.626;10.580;2022-11-20T00:09:12;11.70;99.90
35129;DHT22;21301;43.626;10.580;2022-11-20T00:11:38;11.60;99.90
35129;DHT22;21301;43.626;10.580;2022-11-20T00:14:04;11.60;99.90
35129;DHT22;21301;43.626;10.580;2022-11-20T00:16:31;11.50;99.90
35129;DHT22;21301;43.626;10.580;2022-11-20T00:18:58;11.40;99.90
35129;DHT22;21301;43.626;10.580;2022-11-20T00:21:26;11.50;99.90
35129;DHT22;21301;43.626;10.580;2022-11-20T00:23:54;11.40;99.90
35129;DHT22;21301;43.626;10.580;2022-11-20T00:26:22;11.50;99.90
35129;DHT22;21301;43.626;10.580;2022-11-20T00:28:53;11.50;99.90
35129;DHT22;21301;43.626;10.580;2022-11-20T00:31:19;11.60;99.90
35129;DHT22;21301;43.626;10.580;2022-11-20T00:33:45;11.70;99.90
35129;DHT22;21301;43.626;10.580;2022-11-20T00:36:13;11.70;99.90
35129;DHT22;21301;43.626;10.580;2022-11-20T00:38:40;11.80;99.90
35129;DHT22;21301;43.626;10.580;2022-11-20T00:41:11;11.90;99.90
35129;DHT22;21301;43.626;10.580;2022-11-20T00:43:37;12.00;99.90
35129;DHT22;21301;43.626;10.580;2022-11-20T00:46:13;12.00;99.90
35129;DHT22;21301;43.626;10.580;2022-11-20T00:48:39;12.00;99.90
35129;DHT22;21301;43.626;10.580;2022-11-20T00:51:05;12.10;99.90
35129;DHT22;21301;43.626;10.580;2022-11-20T00:53:31;12.10;99.90
35129;DHT22;21301;43.626;10.580;2022-11-20T00:56:01;12.20;99.90
35129;DHT22;21301;43.626;10.580;2022-11-20T00:58:36;12.30;99.90
35129;DHT22;21301;43.626;10.580;2022-11-20T01:01:15;12.30;99.90
35129;DHT22;21301;43.626;10.580;2022-11-20T01:03:44;12.20;99.90
35129;DHT22;21301;43.626;10.580;2022-11-20T01:06:19;12.00;99.90
35129;DHT22;21301;43.626;10.580;2022-11-20T01:08:46;12.00;99.90
35129;DHT22;21301;43.626;10.580;2022-11-20T01:11:14;12.00;99.90
35129;DHT22;21301;43.626;10.580;2022-11-20T01:13:41;12.10;99.90
35129;DHT22;21301;43.626;10.580;2022-11-20T01:16:08;12.00;99.90
35129;DHT22;21301;43.626;10.580;2022-11-20T01:18:36;11.80;99.90
35129;DHT22;21301;43.626;10.580;2022-11-20T01:21:10;11.60;99.90
35129;DHT22;21301;43.626;10.580;2022-11-20T01:23:38;11.60;99.90
35129;DHT22;21301;43.626;10.580;2022-11-20T01:26:15;11.50;99.90
35129;DHT22;21301;43.626;10.580;2022-11-20T01:28:42;11.50;99.90
35129;DHT22;21301;43.626;10.580;2022-11-20T01:31:19;11.60;99.90
35129;DHT22;21301;43.626;10.580;2022-11-20T01:33:48;11.80;99.90
35129;DHT22;21301;43.626;10.580;2022-11-20T01:36:15;12.00;99.90
35129;DHT22;21301;43.626;10.580;2022-11-20T01:38:41;12.00;99.90
35129;DHT22;21301;43.626;10.580;2022-11-20T01:41:09;12.10;99.90
35129;DHT22;21301;43.626;10.580;2022-11-20T01:43:35;12.00;99.90
35129;DHT22;21301;43.626;10.580;2022-11-20T01:48:42;11.30;99.90
35129;DHT22;21301;43.626;10.580;2022-11-20T01:51:20;11.50;99.90
35129;DHT22;21301;43.626;10.580;2022-11-20T01:53:50;11.50;99.90
35129;DHT22;21301;43.626;10.580;2022-11-20T01:56:18;11.80;99.90
35129;DHT22;21301;43.626;10.580;2022-11-20T01:58:48;11.80;99.90
35129;DHT22;21301;43.626;10.580;2022-11-20T02:01:15;11.90;99.90
35129;DHT22;21301;43.626;10.580;2022-11-20T02:03:42;12.00;99.90
35129;DHT22;21301;43.626;10.580;2022-11-20T02:06:19;11.80;99.90
35129;DHT22;21301;43.626;10.580;2022-11-20T02:08:47;11.90;99.90
35129;DHT22;21301;43.626;10.580;2022-11-20T02:11:13;11.80;99.90
35129;DHT22;21301;43.626;10.580;2022-11-20T02:13:40;11.80;99.90
35129;DHT22;21301;43.626;10.580;2022-11-20T02:16:15;11.40;99.90
35129;DHT22;21301;43.626;10.580;2022-11-20T02:18:42;11.30;99.90
35129;DHT22;21301;43.626;10.580;2022-11-20T02:21:20;11.50;99.90
35129;DHT22;21301;43.626;10.580;2022-11-20T02:24:00;11.80;99.90
35129;DHT22;21301;43.626;10.580;2022-11-20T02:26:31;11.70;99.90
35129;DHT22;21301;43.626;10.580;2022-11-20T02:29:00;11.90;99.90
35129;DHT22;21301;43.626;10.580;2022-11-20T02:31:26;11.60;99.90
35129;DHT22;21301;43.626;10.580;2022-11-20T02:33:56;11.60;99.90
35129;DHT22;21301;43.626;10.580;2022-11-20T02:36:22;11.60;99.90
35129;DHT22;21301;43.626;10.580;2022-11-20T02:38:49;11.70;99.90
35129;DHT22;21301;43.626;10.580;2022-11-20T02:41:15;11.80;99.90
35129;DHT22;21301;43.626;10.580;2022-11-20T02:43:41;11.70;99.90
35129;DHT22;21301;43.626;10.580;2022-11-20T02:46:07;11.80;99.90
35129;DHT22;21301;43.626;10.580;2022-11-20T02:48:33;11.60;99.90
35129;DHT22;21301;43.626;10.580;2022-11-20T02:50:59;11.40;99.90
35129;DHT22;21301;43.626;10.580;2022-11-20T02:53:25;11.30;99.90
35129;DHT22;21301;43.626;10.580;2022-11-20T02:55:51;11.30;99.90
35129;DHT22;21301;43.626;10.580;2022-11-20T02:58:17;11.30;99.90
35129;DHT22;21301;43.626;10.580;2022-11-20T03:00:43;11.40;99.90
35129;DHT22;21301;43.626;10.580;2022-11-20T03:03:09;11.60;99.90
35129;DHT22;21301;43.626;10.580;2022-11-20T03:05:34;11.60;99.90
35129;DHT22;21301;43.626;10.580;2022-11-20T03:08:00;11.70;99.90
35129;DHT22;21301;43.626;10.580;2022-11-20T03:10:26;11.70;99.90
35129;DHT22;21301;43.626;10.580;2022-11-20T03:12:55;11.70;99.90
35129;DHT22;21301;43.626;10.580;2022-11-20T03:15:22;11.70;99.90
35129;DHT22;21301;43.626;10.580;2022-11-20T03:17:48;11.70;99.90
35129;DHT22;21301;43.626;10.580;2022-11-20T03:20:14;11.60;99.90
35129;DHT22;21301;43.626;10.580;2022-11-20T03:22:40;11.60;99.90
35129;DHT22;21301;43.626;10.580;2022-11-20T03:25:06;11.40;99.90
35129;DHT22;21301;43.626;10.580;2022-11-20T03:27:33;11.20;99.90
35129;DHT22;21301;43.626;10.580;2022-11-20T03:29:59;11.10;99.90
35129;DHT22;21301;43.626;10.580;2022-11-20T03:32:25;10.90;99.90
35129;DHT22;21301;43.626;10.580;2022-11-20T03:34:51;10.90;99.90
35129;DHT22;21301;43.626;10.580;2022-11-20T03:37:17;10.90;99.90
35129;DHT22;21301;43.626;10.580;2022-11-20T03:39:42;10.90;99.90
35129;DHT22;21301;43.626;10.580;2022-11-20T03:42:08;10.90;99.90
35129;DHT22;21301;43.626;10.580;2022-11-20T03:44:54;10.70;99.90
35129;DHT22;21301;43.626;10.580;2022-11-20T03:47:20;10.70;99.90
35129;DHT22;21301;43.626;10.580;2022-11-20T03:49:46;10.70;99.90
35129;DHT22;21301;43.626;10.580;2022-11-20T03:52:12;10.80;99.90
35129;DHT22;21301;43.626;10.580;2022-11-20T03:54:38;10.80;99.90
35129;DHT22;21301;43.626;10.580;2022-11-20T03:57:04;10.90;99.90
35129;DHT22;21301;43.626;10.580;2022-11-20T03:59:29;10.70;99.90
35129;DHT22;21301;43.626;10.580;2022-11-20T04:01:55;10.70;99.90
35129;DHT22;21301;43.626;10.580;2022-11-20T04:04:21;10.60;99.90
35129;DHT22;21301;43.626;10.580;2022-11-20T04:06:47;10.60;99.90
35129;DHT22;21301;43.626;10.580;2022-11-20T04:09:13;10.40;99.90
35129;DHT22;21301;43.626;10.580;2022-11-20T04:11:40;10.40;99.90
35129;DHT22;21301;43.626;10.580;2022-11-20T04:14:15;10.50;99.90
35129;DHT22;21301;43.626;10.580;2022-11-20T04:16:41;10.60;99.90
35129;DHT22;21301;43.626;10.580;2022-11-20T04:19:11;10.60;99.90
35129;DHT22;21301;43.626;10.580;2022-11-20T04:21:37;10.60;99.90
35129;DHT22;21301;43.626;10.580;2022-11-20T04:24:04;10.60;99.90
35129;DHT22;21301;43.626;10.580;2022-11-20T04:26:30;10.60;99.90
35129;DHT22;21301;43.626;10.580;2022-11-20T04:28:57;10.70;99.90
35129;DHT22;21301;43.626;10.580;2022-11-20T04:31:27;10.70;99.90
35129;DHT22;21301;43.626;10.580;2022-11-20T04:33:53;10.70;99.90
35129;DHT22;21301;43.626;10.580;2022-11-20T04:36:25;10.70;99.90
35129;DHT22;21301;43.626;10.580;2022-11-20T04:38:56;10.40;99.90
35129;DHT22;21301;43.626;10.580;2022-11-20T04:41:26;10.30;99.90
35129;DHT22;21301;43.626;10.580;2022-11-20T04:43:58;10.10;99.90
35129;DHT22;21301;43.626;10.580;2022-11-20T04:46:33;10.10;99.90
35129;DHT22;21301;43.626;10.580;2022-11-20T04:49:00;10.00;99.90
35129;DHT22;21301;43.626;10.580;2022-11-20T04:51:27;9.90;99.90
35129;DHT22;21301;43.626;10.580;2022-11-20T04:53:53;9.90;99.90
35129;DHT22;21301;43.626;10.580;2022-11-20T04:56:19;9.90;99.90
35129;DHT22;21301;43.626;10.580;2022-11-20T04:58:45;9.90;99.90
35129;DHT22;21301;43.626;10.580;2022-11-20T05:01:16;10.10;99.90
35129;DHT22;21301;43.626;10.580;2022-11-20T05:03:43;10.10;99.90
35129;DHT22;21301;43.626;10.580;2022-11-20T05:06:10;10.00;99.90
35129;DHT22;21301;43.626;10.580;2022-11-20T05:08:36;9.90;99.90
35129;DHT22;21301;43.626;10.580;2022-11-20T05:11:10;9.80;99.90
35129;DHT22;21301;43.626;10.580;2022-11-20T05:13:37;9.60;99.90
35129;DHT22;21301;43.626;10.580;2022-11-20T05:16:05;9.60;99.90
35129;DHT22;21301;43.626;10.580;2022-11-20T05:18:31;9.70;99.90
35129;DHT22;21301;43.626;10.580;2022-11-20T05:20:58;9.80;99.90
35129;DHT22;21301;43.626;10.580;2022-11-20T05:23:25;9.80;99.90
35129;DHT22;21301;43.626;10.580;2022-11-20T05:25:55;9.50;99.90
35129;DHT22;21301;43.626;10.580;2022-11-20T05:28:21;9.40;99.90
35129;DHT22;21301;43.626;10.580;2022-11-20T05:30:47;9.40;99.90
35129;DHT22;21301;43.626;10.580;2022-11-20T05:33:13;9.50;99.90
35129;DHT22;21301;43.626;10.580;2022-11-20T05:35:39;9.50;99.90
35129;DHT22;21301;43.626;10.580;2022-11-20T05:38:05;9.60;99.90
35129;DHT22;21301;43.626;10.580;2022-11-20T05:40:31;9.50;99.90
35129;DHT22;21301;43.626;10.580;2022-11-20T05:42:57;9.60;99.90
35129;DHT22;21301;43.626;10.580;2022-11-20T05:45:22;9.70;99.90
35129;DHT22;21301;43.626;10.580;2022-11-20T05:47:48;9.70;99.90
35129;DHT22;21301;43.626;10.580;2022-11-20T05:50:14;9.80;99.90
35129;DHT22;21301;43.626;10.580;2022-11-20T05:52:41;9.60;99.90
35129;DHT22;21301;43.626;10.580;2022-11-20T05:55:07;9.60;99.90
35129;DHT22;21301;43.626;10.580;2022-11-20T05:57:33;9.50;99.90
35129;DHT22;21301;43.626;10.580;2022-11-20T05:59:59;9.50;99.90
35129;DHT22;21301;43.626;10.580;2022-11-20T06:02:25;9.50;99.90
35129;DHT22;21301;43.626;10.580;2022-11-20T06:04:50;9.40;99.90
35129;DHT22;21301;43.626;10.580;2022-11-20T06:07:16;9.30;99.90
35129;DHT22;21301;43.626;10.580;2022-11-20T06:09:42;9.40;99.90
35129;DHT22;21301;43.626;10.580;2022-11-20T06:12:08;9.20;99.90
35129;DHT22;21301;43.626;10.580;2022-11-20T06:14:34;9.20;99.90
35129;DHT22;21301;43.626;10.580;2022-11-20T06:16:59;9.00;99.90
35129;DHT22;21301;43.626;10.580;2022-11-20T06:19:25;8.80;99.90
35129;DHT22;21301;43.626;10.580;2022-11-20T06:21:51;8.90;99.90
35129;DHT22;21301;43.626;10.580;2022-11-20T06:24:17;8.80;99.90
35129;DHT22;21301;43.626;10.580;2022-11-20T06:26:43;8.90;99.90
35129;DHT22;21301;43.626;10.580;2022-11-20T06:29:09;8.60;99.90
35129;DHT22;21301;43.626;10.580;2022-11-20T06:31:35;8.60;99.90
35129;DHT22;21301;43.626;10.580;2022-11-20T06:34:06;8.50;99.90
35129;DHT22;21301;43.626;10.580;2022-11-20T06:36:32;8.60;99.90
35129;DHT22;21301;43.626;10.580;2022-11-20T06:38:59;8.60;99.90
35129;DHT22;21301;43.626;10.580;2022-11-20T06:41:25;8.70;99.90
35129;DHT22;21301;43.626;10.580;2022-11-20T06:43:51;8.70;99.90
35129;DHT22;21301;43.626;10.580;2022-11-20T06:46:19;8.60;99.90
35129;DHT22;21301;43.626;10.580;2022-11-20T06:48:46;8.60;99.90
35129;DHT22;21301;43.626;10.580;2022-11-20T06:51:12;8.60;99.90
35129;DHT22;21301;43.626;10.580;2022-11-20T06:53:38;8.50;99.90
35129;DHT22;21301;43.626;10.580;2022-11-20T06:56:04;8.60;99.90
35129;DHT22;21301;43.626;10.580;2022-11-20T06:58:31;9.30;99.90
35129;DHT22;21301;43.626;10.580;2022-11-20T07:00:59;10.70;99.90
35129;DHT22;21301;43.626;10.580;2022-11-20T07:03:25;11.90;99.90
35129;DHT22;21301;43.626;10.580;2022-11-20T07:05:50;12.80;99.90
35129;DHT22;21301;43.626;10.580;2022-11-20T07:08:16;13.80;99.90
35129;DHT22;21301;43.626;10.580;2022-11-20T07:10:42;14.00;99.90
35129;DHT22;21301;43.626;10.580;2022-11-20T07:13:08;14.30;99.90
35129;DHT22;21301;43.626;10.580;2022-11-20T07:15:34;14.80;99.90
35129;DHT22;21301;43.626;10.580;2022-11-20T07:18:00;15.00;99.90
35129;DHT22;21301;43.626;10.580;2022-11-20T07:20:26;15.60;99.90
35129;DHT22;21301;43.626;10.580;2022-11-20T07:22:55;15.90;99.90
35129;DHT22;21301;43.626;10.580;2022-11-20T07:25:23;16.50;99.90
35129;DHT22;21301;43.626;10.580;2022-11-20T07:27:48;16.80;99.90
35129;DHT22;21301;43.626;10.580;2022-11-20T07:30:15;17.40;99.90
35129;DHT22;21301;43.626;10.580;2022-11-20T07:32:41;17.50;99.90
35129;DHT22;21301;43.626;10.580;2022-11-20T07:35:07;18.00;99.90
35129;DHT22;21301;43.626;10.580;2022-11-20T07:37:36;18.10;99.90
35129;DHT22;21301;43.626;10.580;2022-11-20T07:40:03;18.40;99.90
35129;DHT22;21301;43.626;10.580;2022-11-20T07:42:29;18.70;99.90
35129;DHT22;21301;43.626;10.580;2022-11-20T07:44:55;18.70;99.90
35129;DHT22;21301;43.626;10.580;2022-11-20T07:47:21;18.30;99.90
35129;DHT22;21301;43.626;10.580;2022-11-20T07:49:47;17.60;99.90
35129;DHT22;21301;43.626;10.580;2022-11-20T07:52:13;17.80;99.90
35129;DHT22;21301;43.626;10.580;2022-11-20T07:54:38;17.90;99.90
35129;DHT22;21301;43.626;10.580;2022-11-20T07:57:06;18.90;99.90
35129;DHT22;21301;43.626;10.580;2022-11-20T07:59:32;19.30;99.90
35129;DHT22;21301;43.626;10.580;2022-11-20T08:01:58;18.50;99.90
35129;DHT22;21301;43.626;10.580;2022-11-20T08:04:24;18.40;99.90
35129;DHT22;21301;43.626;10.580;2022-11-20T08:06:51;17.20;99.90
35129;DHT22;21301;43.626;10.580;2022-11-20T08:09:17;16.10;99.90
35129;DHT22;21301;43.626;10.580;2022-11-20T08:11:43;15.60;99.90
35129;DHT22;21301;43.626;10.580;2022-11-20T08:14:27;15.00;99.90
35129;DHT22;21301;43.626;10.580;2022-11-20T08:16:53;14.80;99.90
35129;DHT22;21301;43.626;10.580;2022-11-20T08:19:19;14.60;99.90
35129;DHT22;21301;43.626;10.580;2022-11-20T08:21:45;14.50;99.90
35129;DHT22;21301;43.626;10.580;2022-11-20T08:24:11;14.20;99.90
35129;DHT22;21301;43.626;10.580;2022-11-20T08:26:38;14.50;99.90
35129;DHT22;21301;43.626;10.580;2022-11-20T08:29:06;14.50;99.90
35129;DHT22;21301;43.626;10.580;2022-11-20T08:31:32;14.90;99.90
35129;DHT22;21301;43.626;10.580;2022-11-20T08:33:58;14.90;99.90
35129;DHT22;21301;43.626;10.580;2022-11-20T08:36:24;14.80;99.90
35129;DHT22;21301;43.626;10.580;2022-11-20T08:38:52;15.20;99.90
35129;DHT22;21301;43.626;10.580;2022-11-20T08:41:19;14.60;99.90
35129;DHT22;21301;43.626;10.580;2022-11-20T08:44:05;15.00;99.90
35129;DHT22;21301;43.626;10.580;2022-11-20T08:46:40;15.40;99.90
35129;DHT22;21301;43.626;10.580;2022-11-20T08:49:13;15.30;99.90
35129;DHT22;21301;43.626;10.580;2022-11-20T08:51:40;15.10;99.90
35129;DHT22;21301;43.626;10.580;2022-11-20T08:54:07;15.20;99.90
35129;DHT22;21301;43.626;10.580;2022-11-20T08:56:33;15.10;99.90
35129;DHT22;21301;43.626;10.580;2022-11-20T08:58:59;15.10;99.90
35129;DHT22;21301;43.626;10.580;2022-11-20T09:01:28;15.30;99.90
35129;DHT22;21301;43.626;10.580;2022-11-20T09:03:58;15.40;99.90
35129;DHT22;21301;43.626;10.580;2022-11-20T09:06:25;15.70;99.90
35129;DHT22;21301;43.626;10.580;2022-11-20T09:08:54;15.90;99.90
35129;DHT22;21301;43.626;10.580;2022-11-20T09:11:20;16.40;99.90
35129;DHT22;21301;43.626;10.580;2022-11-20T09:13:46;16.40;99.90
35129;DHT22;21301;43.626;10.580;2022-11-20T09:16:12;16.50;99.90
35129;DHT22;21301;43.626;10.580;2022-11-20T09:18:38;16.50;99.90
35129;DHT22;21301;43.626;10.580;2022-11-20T09:21:11;17.10;99.90
35129;DHT22;21301;43.626;10.580;2022-11-20T09:23:38;17.30;99.90
35129;DHT22;21301;43.626;10.580;2022-11-20T09:26:14;17.70;99.90
35129;DHT22;21301;43.626;10.580;2022-11-20T09:28:40;17.60;99.90
35129;DHT22;21301;43.626;10.580;2022-11-20T09:31:22;17.80;99.90
35129;DHT22;21301;43.626;10.580;2022-11-20T09:33:48;17.70;99.90
35129;DHT22;21301;43.626;10.580;2022-11-20T09:36:14;17.80;99.90
35129;DHT22;21301;43.626;10.580;2022-11-20T09:38:41;17.60;99.90
35129;DHT22;21301;43.626;10.580;2022-11-20T09:44:03;17.80;99.90
35129;DHT22;21301;43.626;10.580;2022-11-20T09:46:44;18.00;99.90
35129;DHT22;21301;43.626;10.580;2022-11-20T09:52:01;18.00;99.90
35129;DHT22;21301;43.626;10.580;2022-11-20T09:54:35;18.10;99.90
35129;DHT22;21301;43.626;10.580;2022-11-20T09:57:10;17.90;99.90
35129;DHT22;21301;43.626;10.580;2022-11-20T10:00:09;18.20;99.90
35129;DHT22;21301;43.626;10.580;2022-11-20T10:02:55;18.10;99.90
35129;DHT22;21301;43.626;10.580;2022-11-20T10:05:25;18.20;99.90
35129;DHT22;21301;43.626;10.580;2022-11-20T10:10:47;18.70;99.90
35129;DHT22;21301;43.626;10.580;2022-11-20T10:19:04;18.80;99.90
35129;DHT22;21301;43.626;10.580;2022-11-20T10:24:55;18.00;99.90
35129;DHT22;21301;43.626;10.580;2022-11-20T10:27:26;18.00;99.90
35129;DHT22;21301;43.626;10.580;2022-11-20T10:30:17;18.70;99.90
35129;DHT22;21301;43.626;10.580;2022-11-20T10:32:47;18.60;99.90
35129;DHT22;21301;43.626;10.580;2022-11-20T10:35:18;18.40;99.90
35129;DHT22;21301;43.626;10.580;2022-11-20T10:37:49;18.50;99.90
35129;DHT22;21301;43.626;10.580;2022-11-20T10:40:35;18.40;99.90
35129;DHT22;21301;43.626;10.580;2022-11-20T10:43:32;18.80;99.90
35129;DHT22;21301;43.626;10.580;2022-11-20T10:46:17;18.40;99.90
35129;DHT22;21301;43.626;10.580;2022-11-20T10:48:44;18.30;99.90
35129;DHT22;21301;43.626;10.580;2022-11-20T10:56:46;18.80;99.90
35129;DHT22;21301;43.626;10.580;2022-11-20T11:02:22;17.60;99.90
35129;DHT22;21301;43.626;10.580;2022-11-20T11:04:51;17.30;99.90
35129;DHT22;21301;43.626;10.580;2022-11-20T11:07:27;17.00;99.90
35129;DHT22;21301;43.626;10.580;2022-11-20T11:09:56;17.00;99.90
35129;DHT22;21301;43.626;10.580;2022-11-20T11:12:25;17.00;99.90
35129;DHT22;21301;43.626;10.580;2022-11-20T11:14:53;17.30;99.90
35129;DHT22;21301;43.626;10.580;2022-11-20T11:17:28;17.30;99.90
35129;DHT22;21301;43.626;10.580;2022-11-20T11:20:03;17.50;99.90
35129;DHT22;21301;43.626;10.580;2022-11-20T11:22:32;17.20;99.90
35129;DHT22;21301;43.626;10.580;2022-11-20T11:24:58;17.30;99.90
35129;DHT22;21301;43.626;10.580;2022-11-20T11:27:24;17.50;99.90
35129;DHT22;21301;43.626;10.580;2022-11-20T11:30:17;17.70;99.90
35129;DHT22;21301;43.626;10.580;2022-11-20T11:32:43;17.40;99.90
35129;DHT22;21301;43.626;10.580;2022-11-20T11:35:23;17.80;99.90
35129;DHT22;21301;43.626;10.580;2022-11-20T11:37:49;18.10;99.90
35129;DHT22;21301;43.626;10.580;2022-11-20T11:40:17;18.00;99.90
35129;DHT22;21301;43.626;10.580;2022-11-20T11:42:50;17.90;99.90
35129;DHT22;21301;43.626;10.580;2022-11-20T11:45:17;18.00;99.90
35129;DHT22;21301;43.626;10.580;2022-11-20T11:55:33;17.90;99.90
35129;DHT22;21301;43.626;10.580;2022-11-20T11:58:11;17.90;99.90
35129;DHT22;21301;43.626;10.580;2022-11-20T12:00:45;18.00;99.90
35129;DHT22;21301;43.626;10.580;2022-11-20T12:03:17;17.80;99.90
35129;DHT22;21301;43.626;10.580;2022-11-20T12:06:06;17.60;98.00
35129;DHT22;21301;43.626;10.580;2022-11-20T12:14:33;17.40;98.90
35129;DHT22;21301;43.626;10.580;2022-11-20T12:17:01;17.40;99.10
35129;DHT22;21301;43.626;10.580;2022-11-20T12:19:33;17.50;99.90
35129;DHT22;21301;43.626;10.580;2022-11-20T12:32:28;17.50;99.50
35129;DHT22;21301;43.626;10.580;2022-11-20T12:43:27;18.00;99.10
35129;DHT22;21301;43.626;10.580;2022-11-20T12:57:21;17.90;98.00
35129;DHT22;21301;43.626;10.580;2022-11-20T13:00:01;17.90;98.90
35129;DHT22;21301;43.626;10.580;2022-11-20T13:08:11;17.60;99.50
35129;DHT22;21301;43.626;10.580;2022-11-20T13:10:50;17.80;99.90
35129;DHT22;21301;43.626;10.580;2022-11-20T13:13:28;17.80;99.30
35129;DHT22;21301;43.626;10.580;2022-11-20T13:16:12;17.60;98.70
35129;DHT22;21301;43.626;10.580;2022-11-20T13:18:43;17.10;98.80
35129;DHT22;21301;43.626;10.580;2022-11-20T13:21:22;16.90;99.40
35129;DHT22;21301;43.626;10.580;2022-11-20T13:24:20;17.10;99.30
35129;DHT22;21301;43.626;10.580;2022-11-20T13:27:17;17.10;99.40
35129;DHT22;21301;43.626;10.580;2022-11-20T13:30:00;17.30;99.40
35129;DHT22;21301;43.626;10.580;2022-11-20T13:32:27;17.30;99.00
35129;DHT22;21301;43.626;10.580;2022-11-20T13:35:01;17.50;99.70
35129;DHT22;21301;43.626;10.580;2022-11-20T13:37:34;17.50;99.00
35129;DHT22;21301;43.626;10.580;2022-11-20T13:45:21;17.20;99.20
35129;DHT22;21301;43.626;10.580;2022-11-20T13:47:50;17.10;99.50
35129;DHT22;21301;43.626;10.580;2022-11-20T13:50:16;17.10;99.20
35129;DHT22;21301;43.626;10.580;2022-11-20T13:55:37;17.00;98.40
35129;DHT22;21301;43.626;10.580;2022-11-20T14:01:19;17.00;98.30
35129;DHT22;21301;43.626;10.580;2022-11-20T14:03:47;17.00;98.90
35129;DHT22;21301;43.626;10.580;2022-11-20T14:08:48;17.00;98.50
35129;DHT22;21301;43.626;10.580;2022-11-20T14:11:20;16.90;98.60
35129;DHT22;21301;43.626;10.580;2022-11-20T14:14:03;16.60;98.00
35129;DHT22;21301;43.626;10.580;2022-11-20T14:16:31;16.50;97.50
35129;DHT22;21301;43.626;10.580;2022-11-20T14:21:42;16.20;97.50
35129;DHT22;21301;43.626;10.580;2022-11-20T14:24:11;16.10;98.30
35129;DHT22;21301;43.626;10.580;2022-11-20T14:26:44;16.20;98.90
35129;DHT22;21301;43.626;10.580;2022-11-20T14:29:19;16.10;98.40
35129;DHT22;21301;43.626;10.580;2022-11-20T14:31:47;16.30;99.30
35129;DHT22;21301;43.626;10.580;2022-11-20T14:34:19;16.40;99.20
35129;DHT22;21301;43.626;10.580;2022-11-20T14:36:45;16.50;99.10
35129;DHT22;21301;43.626;10.580;2022-11-20T14:39:22;16.70;99.10
35129;DHT22;21301;43.626;10.580;2022-11-20T14:41:54;16.80;99.20
35129;DHT22;21301;43.626;10.580;2022-11-20T14:44:33;16.80;98.90
35129;DHT22;21301;43.626;10.580;2022-11-20T14:47:02;16.80;98.70
35129;DHT22;21301;43.626;10.580;2022-11-20T14:49:30;16.80;99.00
35129;DHT22;21301;43.626;10.580;2022-11-20T14:52:21;16.80;99.20
35129;DHT22;21301;43.626;10.580;2022-11-20T14:54:52;16.80;98.40
35129;DHT22;21301;43.626;10.580;2022-11-20T14:57:25;16.80;99.40
35129;DHT22;21301;43.626;10.580;2022-11-20T15:00:02;16.80;99.60
35129;DHT22;21301;43.626;10.580;2022-11-20T15:02:30;16.50;99.30
35129;DHT22;21301;43.626;10.580;2022-11-20T15:05:00;16.20;99.90
35129;DHT22;21301;43.626;10.580;2022-11-20T15:07:34;16.00;99.90
35129;DHT22;21301;43.626;10.580;2022-11-20T15:10:04;15.90;99.90
35129;DHT22;21301;43.626;10.580;2022-11-20T15:12:31;15.90;99.90
35129;DHT22;21301;43.626;10.580;2022-11-20T15:14:58;15.90;99.90
35129;DHT22;21301;43.626;10.580;2022-11-20T15:17:24;16.00;99.90
35129;DHT22;21301;43.626;10.580;2022-11-20T15:19:50;15.90;99.90
35129;DHT22;21301;43.626;10.580;2022-11-20T15:22:16;15.80;99.90
35129;DHT22;21301;43.626;10.580;2022-11-20T15:24:42;15.80;99.90
35129;DHT22;21301;43.626;10.580;2022-11-20T15:27:09;15.80;99.90
35129;DHT22;21301;43.626;10.580;2022-11-20T15:29:35;15.70;99.90
35129;DHT22;21301;43.626;10.580;2022-11-20T15:32:00;15.70;99.90
35129;DHT22;21301;43.626;10.580;2022-11-20T15:34:27;15.80;99.90
35129;DHT22;21301;43.626;10.580;2022-11-20T15:36:52;15.70;99.90
35129;DHT22;21301;43.626;10.580;2022-11-20T15:39:20;15.60;99.90
35129;DHT22;21301;43.626;10.580;2022-11-20T15:41:46;15.50;99.90
35129;DHT22;21301;43.626;10.580;2022-11-20T15:44:12;15.40;99.90
35129;DHT22;21301;43.626;10.580;2022-11-20T15:46:40;15.30;99.90
35129;DHT22;21301;43.626;10.580;2022-11-20T15:49:15;15.20;99.90
35129;DHT22;21301;43.626;10.580;2022-11-20T15:51:43;15.10;99.90
35129;DHT22;21301;43.626;10.580;2022-11-20T15:54:15;14.80;99.90
35129;DHT22;21301;43.626;10.580;2022-11-20T15:56:43;14.70;99.90
35129;DHT22;21301;43.626;10.580;2022-11-20T15:59:09;14.40;99.90
35129;DHT22;21301;43.626;10.580;2022-11-20T16:01:35;14.40;99.90
35129;DHT22;21301;43.626;10.580;2022-11-20T16:04:01;14.30;99.90
35129;DHT22;21301;43.626;10.580;2022-11-20T16:06:27;14.10;99.90
35129;DHT22;21301;43.626;10.580;2022-11-20T16:08:52;13.80;99.90
35129;DHT22;21301;43.626;10.580;2022-11-20T16:11:18;13.90;99.90
35129;DHT22;21301;43.626;10.580;2022-11-20T16:13:44;13.90;99.90
35129;DHT22;21301;43.626;10.580;2022-11-20T16:16:36;13.80;99.90
35129;DHT22;21301;43.626;10.580;2022-11-20T16:19:03;13.60;99.90
35129;DHT22;21301;43.626;10.580;2022-11-20T16:21:29;13.20;99.90
35129;DHT22;21301;43.626;10.580;2022-11-20T16:24:04;13.10;99.90
35129;DHT22;21301;43.626;10.580;2022-11-20T16:26:31;13.00;99.90
35129;DHT22;21301;43.626;10.580;2022-11-20T16:28:59;13.00;99.90
35129;DHT22;21301;43.626;10.580;2022-11-20T16:31:25;13.00;99.90
35129;DHT22;21301;43.626;10.580;2022-11-20T16:33:53;13.00;99.90
35129;DHT22;21301;43.626;10.580;2022-11-20T16:36:20;13.20;99.90
35129;DHT22;21301;43.626;10.580;2022-11-20T16:38:46;13.20;99.90
35129;DHT22;21301;43.626;10.580;2022-11-20T16:41:12;13.00;99.90
35129;DHT22;21301;43.626;10.580;2022-11-20T16:43:51;12.90;99.90
35129;DHT22;21301;43.626;10.580;2022-11-20T16:46:19;12.80;99.90
35129;DHT22;21301;43.626;10.580;2022-11-20T16:48:56;12.70;99.90
35129;DHT22;21301;43.626;10.580;2022-11-20T16:51:23;12.90;99.90
35129;DHT22;21301;43.626;10.580;2022-11-20T16:53:49;13.10;99.90
35129;DHT22;21301;43.626;10.580;2022-11-20T16:56:17;13.10;99.90
35129;DHT22;21301;43.626;10.580;2022-11-20T16:58:44;13.20;99.90
35129;DHT22;21301;43.626;10.580;2022-11-20T17:01:13;13.10;99.90
35129;DHT22;21301;43.626;10.580;2022-11-20T17:03:40;13.10;99.90
35129;DHT22;21301;43.626;10.580;2022-11-20T17:06:17;13.10;99.90